Huvudsida
METAR-TAF:

METAR-TAF

Flygplatser :

Pajas Blancas Airport

Córdoba, Argentina

latitud: 31-19S, longitud: 064-13W, höjd: 484 m

Aktuellt väderrapport

Denna rapport gjordes för 1 timme och 9 minuter sedan, klockan 02:00 UTC
Vind 6 kt från väst
Temperatur 10°C
Fuktighet 46%
Tryck 1020 hPa
Sikt 10 km eller mer
Inga moln under 1 500 m eller inga cumulonimbus

METAR: SACO 180200Z 26006KT CAVOK 10/M01 Q1020 NOSIG

Tid: 00:09 (03:09 UTC)

Väderprognos

Denna rapport gjordes för 4 timmar och 9 minuter sedan, klockan 23:00 UTC
Prognos gäller från 18 kl. 00 UTC till 18 kl. 24 UTC
Vind 5 kt från sydost
Sikt 10 km eller mer
Inga moln under 1 500 m eller inga cumulonimbus
Blir
från 18 kl. 02 UTC till 18 kl. 04 UTC
Vind 5 kt från sydväst
Blir
från 18 kl. 12 UTC till 18 kl. 14 UTC
Vind 5 kt från ost/sydost

TAF: SACO 172300Z 1800/1824 14005KT CAVOK TX18/1818Z TN05/1810Z BECMG 1802/1804 23005KT BECMG 1812/1814 11005KT

Aktuella väderrapporter och prognoser från 4000 flygplatser (METAR- och TAF-rapporter).

De tillgängliga stationerna syns som gula och röda prickar på kartan.

För musen över prickarna för att se namnen på stationerna.

Klicka sedan för att få väderrapporter och prognoser.

För att ändra kartan: Klicka på de gröna knapparna med ett svart kors på för att zooma in; den gröna knappen med ett streck på för att zooma ut; eller på de gröna pilarna för angränsande kartor.


METAR-TAF: